Time;durP1;ratioP1;P1;durP2;ratioP2;P2;SDS_P1;SDS_P2;PMS_P1;PMS_P2;Temp;Humidity;BMP_temperature;BMP_pressure;BME280_temperature;BME280_humidity;BME280_pressure;Samples;Min_cycle;Max_cycle;Signal;HPM_P1;HPM_P2
2022/06/07 00:01:37;;;;;;;11.15;5.82;;;;;;;14.84;76.26;99655.22;5041288;28;20029;-79
2022/06/07 00:04:04;;;;;;;11.63;6.07;;;;;;;14.81;76.28;99654.66;5041797;28;20028;-81
2022/06/07 00:06:29;;;;;;;12.68;6.25;;;;;;;14.81;76.42;99648.34;5041651;28;20035;-81
2022/06/07 00:08:55;;;;;;;9.82;5.93;;;;;;;14.81;76.12;99660.16;5041933;28;20025;-80
2022/06/07 00:11:21;;;;;;;10.18;6.13;;;;;;;14.98;76.26;99647.06;5041508;28;20033;-80
2022/06/07 00:13:47;;;;;;;11.13;6.18;;;;;;;14.62;76.91;99651.91;5040695;28;20029;-79
2022/06/07 00:16:14;;;;;;;12.57;5.53;;;;;;;14.66;77.04;99649.41;5041646;28;20171;-80
2022/06/07 00:18:39;;;;;;;11.60;5.55;;;;;;;14.64;77.21;99643.38;5041039;28;20127;-80
2022/06/07 00:23:48;;;;;;;9.43;5.40;;;;;;;14.32;78.10;99643.78;5039094;28;20069;-80
2022/06/07 00:26:14;;;;;;;13.80;5.77;;;;;;;14.19;78.07;99649.97;5041244;28;20045;-80
2022/06/07 00:28:39;;;;;;;8.50;4.82;;;;;;;14.18;79.13;99643.66;5041481;28;20285;-80
2022/06/07 00:31:04;;;;;;;10.40;5.45;;;;;;;14.21;78.83;99647.75;5040964;28;20678;-81
2022/06/07 00:33:30;;;;;;;10.20;5.95;;;;;;;14.37;78.36;99640.16;5041154;28;20025;-79
2022/06/07 00:35:55;;;;;;;11.35;5.43;;;;;;;14.42;77.62;99642.03;5041194;28;20503;-79
2022/06/07 00:38:21;;;;;;;9.63;5.32;;;;;;;14.23;78.48;99640.06;5041099;28;20091;-79
2022/06/07 00:40:47;;;;;;;11.20;6.05;;;;;;;14.24;77.79;99641.69;5037902;28;20079;-79
2022/06/07 00:43:12;;;;;;;8.88;5.00;;;;;;;14.04;78.81;99643.56;5040469;28;20503;-77
2022/06/07 00:45:38;;;;;;;14.25;4.97;;;;;;;14.21;78.86;99643.09;5040206;28;20020;-79
2022/06/07 00:48:04;;;;;;;10.82;5.30;;;;;;;14.03;78.97;99641.94;5040051;28;20030;-79
2022/06/07 00:50:52;;;;;;;28.05;7.35;;;;;;;13.96;79.21;99639.53;5040624;28;20025;-80
2022/06/07 00:53:31;;;;;;;8.98;5.30;;;;;;;13.94;79.57;99640.91;5038483;28;20175;-78
2022/06/07 00:55:58;;;;;;;9.27;5.45;;;;;;;14.10;79.09;99636.91;5040126;28;20025;-78
2022/06/07 00:58:28;;;;;;;10.90;5.38;;;;;;;14.00;79.41;99629.63;5040313;28;20029;-81
2022/06/07 01:00:55;;;;;;;10.15;4.40;;;;;;;13.97;78.97;99626.66;5039978;28;20032;-80
2022/06/07 01:03:21;;;;;;;7.35;4.05;;;;;;;14.15;78.24;99632.47;5040176;28;20532;-80
2022/06/07 01:05:47;;;;;;;12.20;4.60;;;;;;;14.02;79.39;99634.81;5040373;28;20029;-79
2022/06/07 01:11:03;;;;;;;9.45;5.93;;;;;;;14.05;78.68;99625.19;5010249;28;20098;-81
2022/06/07 01:13:32;;;;;;;8.73;5.15;;;;;;;13.84;79.18;99623.50;5039659;28;20124;-81
2022/06/07 01:16:06;;;;;;;11.68;6.30;;;;;;;13.59;80.14;99625.38;5039321;28;20041;-80
2022/06/07 01:18:32;;;;;;;9.77;4.78;;;;;;;13.47;80.76;99631.19;5039131;28;20028;-81
2022/06/07 01:21:30;;;;;;;11.93;5.82;;;;;;;13.43;80.62;99625.50;5040009;28;20029;-80
2022/06/07 01:23:56;;;;;;;9.30;5.72;;;;;;;13.37;80.48;99632.13;5031251;28;20049;-80
2022/06/07 01:26:22;;;;;;;10.57;4.93;;;;;;;13.39;80.22;99629.91;5040729;28;20028;-80
2022/06/07 01:28:48;;;;;;;9.90;5.32;;;;;;;13.43;81.05;99625.50;5040550;28;20029;-79
2022/06/07 01:31:13;;;;;;;7.82;4.18;;;;;;;13.52;80.71;99624.88;5040039;28;20035;-80
2022/06/07 01:33:38;;;;;;;7.60;4.50;;;;;;;13.60;79.65;99615.25;5039860;28;20036;-78
2022/06/07 01:36:07;;;;;;;8.23;4.10;;;;;;;13.72;78.66;99620.31;5055048;28;20316;-80
2022/06/07 01:38:35;;;;;;;9.65;4.90;;;;;;;13.79;78.54;99609.81;5040616;28;20039;-80
2022/06/07 01:43:45;;;;;;;9.68;4.53;;;;;;;13.71;79.04;99607.75;5048162;28;20114;-81
2022/06/07 01:46:10;;;;;;;9.98;3.67;;;;;;;13.68;78.96;99603.66;5039889;28;20020;-79
2022/06/07 01:48:50;;;;;;;6.45;3.67;;;;;;;13.63;78.58;99606.44;5039953;28;20029;-80
2022/06/07 01:51:17;;;;;;;7.60;3.80;;;;;;;13.74;77.91;99602.50;5040460;28;20068;-80
2022/06/07 01:53:42;;;;;;;6.90;4.40;;;;;;;13.76;77.74;99599.47;5039915;28;20786;-79
2022/06/07 01:56:14;;;;;;;10.98;3.47;;;;;;;13.65;78.00;99599.56;5040427;28;20075;-80
2022/06/07 01:58:42;;;;;;;9.60;4.28;;;;;;;13.73;77.73;99600.84;5039580;28;20025;-80
2022/06/07 02:01:09;;;;;;;6.80;3.67;;;;;;;13.81;77.06;99596.66;5039145;28;20033;-80
2022/06/07 02:03:34;;;;;;;6.53;3.80;;;;;;;14.04;76.32;99587.91;5037333;28;20056;-80
2022/06/07 02:06:06;;;;;;;7.88;3.17;;;;;;;14.05;75.55;99601.34;5039856;28;20476;-79
2022/06/07 02:08:32;;;;;;;6.07;4.00;;;;;;;14.08;75.25;99584.28;5040165;28;20445;-78
2022/06/07 02:11:06;;;;;;;10.00;4.38;;;;;;;14.14;74.91;99587.00;5039379;28;20637;-80
2022/06/07 02:13:32;;;;;;;9.60;3.40;;;;;;;14.26;74.44;99584.63;5038189;28;20071;-79
2022/06/07 02:15:57;;;;;;;8.95;3.17;;;;;;;14.24;74.52;99584.09;5038755;28;20056;-81
2022/06/07 02:18:23;;;;;;;10.33;3.17;;;;;;;14.21;74.38;99582.78;5039077;28;20029;-80
2022/06/07 02:20:48;;;;;;;5.05;3.22;;;;;;;14.25;74.33;99577.53;5039454;28;20345;-80
2022/06/07 02:23:13;;;;;;;9.93;3.85;;;;;;;14.23;73.85;99577.81;5039146;28;20044;-79
2022/06/07 02:25:44;;;;;;;5.93;2.97;;;;;;;14.24;73.72;99573.13;5039794;28;20017;-80
2022/06/07 02:28:12;;;;;;;6.70;3.72;;;;;;;14.33;73.20;99576.88;5039493;28;20269;-80
2022/06/07 02:30:40;;;;;;;11.23;2.95;;;;;;;14.34;72.95;99564.78;5039586;28;20039;-79
2022/06/07 02:33:06;;;;;;;7.28;2.90;;;;;;;14.30;72.89;99573.91;5038346;28;20040;-80
2022/06/07 02:35:32;;;;;;;10.30;3.80;;;;;;;14.35;72.88;99574.66;5039841;28;20042;-80
2022/06/07 02:38:12;;;;;;;5.93;3.15;;;;;;;14.24;73.19;99567.66;5039308;28;20602;-79
2022/06/07 02:40:38;;;;;;;6.13;2.40;;;;;;;14.27;72.78;99569.00;5061308;28;20499;-80
2022/06/07 02:43:04;;;;;;;8.60;3.53;;;;;;;14.30;72.59;99569.22;5053273;28;20040;-80
2022/06/07 02:45:30;;;;;;;6.13;2.75;;;;;;;14.36;72.59;99576.25;5039191;28;20063;-80
2022/06/07 02:47:55;;;;;;;6.20;2.75;;;;;;;14.36;72.25;99567.22;5039435;28;20025;-80
2022/06/07 02:50:21;;;;;;;4.55;2.55;;;;;;;14.29;72.31;99556.63;5039069;28;20029;-80
2022/06/07 02:52:47;;;;;;;5.80;3.38;;;;;;;14.21;72.74;99560.03;5039035;28;20055;-79
2022/06/07 02:55:12;;;;;;;7.53;3.33;;;;;;;14.28;72.49;99571.44;5039723;28;20029;-78
2022/06/07 02:57:37;;;;;;;4.00;2.35;;;;;;;14.18;72.61;99569.66;5039238;28;20265;-80
2022/06/07 03:00:05;;;;;;;6.28;2.55;;;;;;;14.24;72.67;99573.94;5039031;28;20112;-80
2022/06/07 03:02:31;;;;;;;5.13;2.85;;;;;;;14.13;72.79;99569.72;5036185;28;20067;-81
2022/06/07 03:04:56;;;;;;;11.73;3.85;;;;;;;14.13;72.94;99575.22;5038813;28;20032;-79
2022/06/07 03:07:22;;;;;;;5.35;2.67;;;;;;;14.10;72.50;99564.81;5039063;28;20121;-80
2022/06/07 03:09:47;;;;;;;8.10;2.90;;;;;;;14.15;72.16;99572.16;5039495;28;20120;-79
2022/06/07 03:12:12;;;;;;;4.50;2.33;;;;;;;14.15;72.06;99567.50;5039079;28;20053;-80
2022/06/07 03:14:37;;;;;;;8.40;2.90;;;;;;;14.10;72.39;99565.63;5038527;28;21049;-80
2022/06/07 03:17:04;;;;;;;6.33;2.67;;;;;;;14.12;72.13;99568.91;5038356;28;20254;-79
2022/06/07 03:19:29;;;;;;;8.10;2.92;;;;;;;14.09;71.85;99568.69;5040336;28;20265;-79
2022/06/07 03:21:55;;;;;;;6.82;2.53;;;;;;;14.16;71.88;99571.88;5043280;28;20033;-80
2022/06/07 03:24:21;;;;;;;8.15;2.60;;;;;;;14.14;71.54;99576.03;5042162;28;20106;-80
2022/06/07 03:26:46;;;;;;;5.90;2.53;;;;;;;14.23;71.27;99575.06;5043064;28;20021;-80
2022/06/07 03:29:12;;;;;;;5.43;2.03;;;;;;;14.21;71.00;99576.47;5041654;28;20040;-79
2022/06/07 03:31:37;;;;;;;7.43;3.40;;;;;;;14.26;71.25;99573.66;5042009;28;20017;-80
2022/06/07 03:34:03;;;;;;;5.85;2.28;;;;;;;14.21;70.98;99585.53;5041832;28;20029;-81
2022/06/07 03:36:29;;;;;;;7.03;2.15;;;;;;;14.21;70.98;99584.69;5041965;28;20110;-81
2022/06/07 03:38:58;;;;;;;5.88;2.33;;;;;;;14.22;70.75;99587.13;5042508;28;20028;-81
2022/06/07 03:41:26;;;;;;;8.63;4.05;;;;;;;14.23;70.64;99585.22;5054388;28;20028;-80
2022/06/07 03:43:52;;;;;;;5.10;2.47;;;;;;;14.22;70.76;99583.56;5048774;28;20535;-80
2022/06/07 03:46:21;;;;;;;9.80;2.60;;;;;;;14.23;70.31;99579.75;5040644;28;20028;-79
2022/06/07 03:48:48;;;;;;;4.28;2.15;;;;;;;14.24;70.28;99587.66;5020784;28;20124;-81
2022/06/07 03:54:00;;;;;;;8.50;4.15;;;;;;;14.22;69.97;99586.31;5031230;28;20091;-80
2022/06/07 03:56:25;;;;;;;3.63;1.80;;;;;;;14.22;69.99;99589.88;5042548;28;20041;-80
2022/06/07 03:58:51;;;;;;;6.85;1.75;;;;;;;14.23;70.39;99591.53;5041770;28;20112;-80
2022/06/07 04:01:19;;;;;;;6.60;2.40;;;;;;;14.26;69.96;99592.84;5041935;28;20498;-79
2022/06/07 04:03:47;;;;;;;7.38;2.30;;;;;;;14.24;69.61;99592.31;5040971;28;20037;-80
2022/06/07 04:06:34;;;;;;;4.15;2.10;;;;;;;14.27;70.01;99597.22;5040306;28;20119;-79
2022/06/07 04:08:59;;;;;;;8.27;2.78;;;;;;;14.23;69.77;99598.94;5041931;28;20440;-78
2022/06/07 04:11:27;;;;;;;8.10;2.28;;;;;;;14.29;69.20;99595.00;5041891;28;20029;-80
2022/06/07 04:13:54;;;;;;;6.03;2.25;;;;;;;14.27;69.20;99593.66;5041740;28;20033;-80
2022/06/07 04:16:22;;;;;;;5.93;2.70;;;;;;;14.24;69.65;99597.81;5040939;28;20053;-81
2022/06/07 04:18:48;;;;;;;6.40;2.63;;;;;;;14.25;69.03;99599.44;5022327;28;20036;-78
2022/06/07 04:21:14;;;;;;;4.88;2.35;;;;;;;14.29;68.92;99594.19;5021725;28;20041;-80
2022/06/07 04:23:41;;;;;;;6.75;2.22;;;;;;;14.34;69.19;99596.84;5040750;28;20247;-80
2022/06/07 04:26:09;;;;;;;6.13;3.13;;;;;;;14.33;69.04;99595.25;5041161;28;20025;-79
2022/06/07 04:28:34;;;;;;;5.95;2.20;;;;;;;14.36;68.80;99589.97;5040266;28;20029;-80
2022/06/07 04:31:00;;;;;;;6.38;2.35;;;;;;;14.38;69.18;99586.94;5041468;28;20300;-80
2022/06/07 04:33:26;;;;;;;4.38;2.08;;;;;;;14.43;68.56;99588.78;5040730;28;20871;-80
2022/06/07 04:36:12;;;;;;;5.72;3.03;;;;;;;14.46;68.35;99588.22;5041560;28;20041;-79
2022/06/07 04:38:38;;;;;;;5.25;2.47;;;;;;;14.53;68.49;99588.66;5039304;28;20098;-79
2022/06/07 04:41:10;;;;;;;5.32;2.28;;;;;;;14.46;68.06;99600.00;5040639;28;20075;-80
2022/06/07 04:43:36;;;;;;;5.47;2.35;;;;;;;14.46;68.11;99600.00;5040869;28;20111;-80
2022/06/07 04:46:06;;;;;;;7.32;2.47;;;;;;;14.57;68.01;99595.19;5040913;28;20124;-80
2022/06/07 04:48:32;;;;;;;8.25;2.35;;;;;;;14.54;67.28;99601.25;5041661;28;20020;-79
2022/06/07 04:51:12;;;;;;;11.68;2.72;;;;;;;14.61;67.73;99600.06;5040362;28;20079;-81
2022/06/07 04:53:39;;;;;;;5.50;2.35;;;;;;;14.60;67.53;99596.53;5039987;28;20139;-80
2022/06/07 04:56:18;;;;;;;6.43;2.50;;;;;;;14.64;67.39;99596.75;5040518;28;20033;-79
2022/06/07 04:58:44;;;;;;;4.88;1.90;;;;;;;14.71;67.07;99599.94;5040361;28;20894;-80
2022/06/07 05:01:15;;;;;;;6.65;2.45;;;;;;;14.77;67.29;99598.75;5039919;28;20048;-79
2022/06/07 05:03:41;;;;;;;5.95;2.50;;;;;;;14.76;67.33;99590.81;5039849;28;20679;-79
2022/06/07 05:06:18;;;;;;;8.05;2.50;;;;;;;14.86;67.05;99584.38;5041332;28;20036;-80
2022/06/07 05:08:43;;;;;;;6.03;2.40;;;;;;;14.90;66.75;99593.66;5039619;28;20139;-80
2022/06/07 05:11:08;;;;;;;3.55;1.67;;;;;;;14.90;66.57;99596.41;5040048;28;20170;-80
2022/06/07 05:13:34;;;;;;;4.70;1.98;;;;;;;14.91;66.34;99598.00;5040127;28;20044;-80
2022/06/07 05:15:59;;;;;;;5.75;1.50;;;;;;;15.01;66.29;99597.84;5039792;28;20049;-79
2022/06/07 05:18:24;;;;;;;4.50;2.07;;;;;;;15.13;65.73;99600.13;5040711;28;20021;-80
2022/06/07 05:20:50;;;;;;;3.75;1.70;;;;;;;15.13;65.82;99600.13;5039903;28;20766;-79
2022/06/07 05:23:15;;;;;;;6.57;2.20;;;;;;;15.28;65.35;99596.34;5040309;28;20044;-79
2022/06/07 05:25:51;;;;;;;5.15;1.70;;;;;;;15.25;65.31;99602.44;5039767;28;20025;-81
2022/06/07 05:28:16;;;;;;;4.22;1.85;;;;;;;15.20;64.72;99605.25;5039928;28;20025;-80
2022/06/07 05:30:42;;;;;;;5.73;1.53;;;;;;;15.29;64.38;99605.38;5038544;28;20169;-80
2022/06/07 05:33:07;;;;;;;4.93;1.58;;;;;;;15.37;64.26;99606.63;5039748;28;20257;-79
2022/06/07 05:35:33;;;;;;;7.97;1.47;;;;;;;15.50;63.78;99614.06;5040305;28;20033;-80
2022/06/07 05:37:58;;;;;;;5.90;1.93;;;;;;;15.39;63.84;99609.88;5039602;28;20304;-80
2022/06/07 05:40:23;;;;;;;3.20;1.50;;;;;;;15.40;63.97;99611.50;5044990;28;20293;-79
2022/06/07 05:42:48;;;;;;;4.20;1.42;;;;;;;15.48;63.57;99621.81;5054614;28;20025;-78
2022/06/07 05:45:14;;;;;;;3.03;1.67;;;;;;;15.48;63.62;99626.47;5039397;28;20029;-80
2022/06/07 05:47:41;;;;;;;3.15;1.63;;;;;;;15.60;63.49;99623.28;5038256;28;20274;-80
2022/06/07 05:50:09;;;;;;;5.43;2.20;;;;;;;15.45;63.28;99627.91;5038037;28;20033;-81
2022/06/07 05:52:36;;;;;;;7.07;2.13;;;;;;;15.35;63.43;99628.91;5037514;28;20032;-81
2022/06/07 05:55:05;;;;;;;5.07;2.08;;;;;;;15.44;63.40;99634.50;5038068;28;20083;-81
2022/06/07 05:57:31;;;;;;;6.15;2.53;;;;;;;15.46;63.35;99635.03;5036184;28;20031;-81
2022/06/07 06:00:10;;;;;;;6.82;2.20;;;;;;;15.52;63.26;99620.09;5037512;28;20428;-80
2022/06/07 06:02:35;;;;;;;4.25;2.10;;;;;;;15.51;63.21;99623.16;5038069;28;20353;-81
2022/06/07 06:05:00;;;;;;;5.93;2.22;;;;;;;15.41;63.02;99615.91;5038125;28;20414;-80
2022/06/07 06:07:25;;;;;;;6.88;1.65;;;;;;;15.38;63.04;99616.47;5038471;28;20149;-81
2022/06/07 06:12:35;;;;;;;5.93;1.83;;;;;;;15.34;62.94;99621.78;5037549;28;20595;-81
2022/06/07 06:15:00;;;;;;;7.90;1.53;;;;;;;15.51;62.81;99620.41;5053752;28;20045;-80
2022/06/07 06:17:25;;;;;;;6.00;2.40;;;;;;;15.51;62.54;99615.72;5037726;28;20258;-80
2022/06/07 06:19:50;;;;;;;8.20;2.30;;;;;;;15.45;62.68;99610.63;5038661;28;20155;-80
2022/06/07 06:22:16;;;;;;;5.38;1.83;;;;;;;15.51;61.97;99620.41;5036918;28;20284;-81
2022/06/07 06:24:41;;;;;;;3.90;1.75;;;;;;;15.71;61.78;99612.91;5037595;28;20037;-80
2022/06/07 06:27:07;;;;;;;6.72;1.98;;;;;;;15.64;62.28;99621.56;5038449;28;20029;-80
2022/06/07 06:29:32;;;;;;;4.38;1.42;;;;;;;15.70;61.55;99617.56;5037757;28;20486;-81
2022/06/07 06:31:58;;;;;;;2.58;1.25;;;;;;;15.74;61.72;99621.34;5038105;28;20229;-80
2022/06/07 06:34:26;;;;;;;4.07;1.58;;;;;;;15.63;61.82;99614.41;5037105;28;20384;-80
2022/06/07 06:36:51;;;;;;;5.45;2.08;;;;;;;15.57;62.50;99621.13;5053172;28;20112;-79
2022/06/07 06:39:17;;;;;;;3.47;1.60;;;;;;;15.48;62.71;99621.81;5037756;28;20119;-78
2022/06/07 06:41:43;;;;;;;4.00;2.10;;;;;;;15.50;62.94;99614.06;5053592;28;20629;-79
2022/06/07 06:44:10;;;;;;;6.03;1.60;;;;;;;15.47;62.71;99613.88;5027337;28;20274;-80
2022/06/07 06:46:39;;;;;;;2.72;1.38;;;;;;;15.43;63.10;99613.66;5018039;28;20036;-79
2022/06/07 06:49:05;;;;;;;4.25;1.55;;;;;;;15.49;62.78;99615.22;5038181;28;20441;-80
2022/06/07 06:51:30;;;;;;;4.93;1.70;;;;;;;15.51;63.09;99615.72;5037093;28;20116;-78
2022/06/07 06:54:01;;;;;;;5.22;1.77;;;;;;;15.56;62.44;99616.75;5037499;28;20041;-80
2022/06/07 06:56:31;;;;;;;4.00;1.63;;;;;;;15.58;62.78;99622.75;5042234;28;20082;-86
2022/06/07 06:59:12;;;;;;;7.38;2.63;;;;;;;15.56;62.72;99616.75;5041511;28;20021;-78
2022/06/07 07:01:38;;;;;;;7.65;2.70;;;;;;;15.66;62.38;99618.50;5040763;28;20033;-80
2022/06/07 07:04:07;;;;;;;7.90;2.08;;;;;;;15.66;62.61;99616.56;5039888;28;20498;-80
2022/06/07 07:06:33;;;;;;;4.82;1.63;;;;;;;15.59;62.31;99613.38;5041609;28;20122;-83
2022/06/07 07:08:59;;;;;;;764.88;118.20;;;;;;;15.83;62.74;99610.47;5040157;28;20899;-83
2022/06/07 07:11:53;;;;;;;14.55;2.20;;;;;;;15.93;62.08;99614.94;5042290;28;20037;-83
2022/06/07 07:14:19;;;;;;;4.95;1.17;;;;;;;15.92;61.39;99610.59;5031570;28;20037;-83
2022/06/07 07:16:50;;;;;;;6.88;2.28;;;;;;;15.93;60.91;99612.19;5040806;28;20052;-83
2022/06/07 07:19:16;;;;;;;9.07;1.80;;;;;;;16.02;61.54;99606.03;5042030;28;20044;-82
2022/06/07 07:21:45;;;;;;;16.23;2.10;;;;;;;16.18;61.24;99596.34;5040614;28;20032;-83
2022/06/07 07:24:16;;;;;;;5.97;2.40;;;;;;;16.13;60.79;99607.44;5041074;28;20041;-83
2022/06/07 07:26:43;;;;;;;3.20;1.05;;;;;;;16.20;60.10;99613.34;5040952;28;20037;-83
2022/06/07 07:29:11;;;;;;;4.25;1.30;;;;;;;16.15;60.18;99604.41;5039368;28;20056;-79
2022/06/07 07:31:37;;;;;;;5.95;1.33;;;;;;;16.25;60.59;99608.88;5039602;28;20440;-80
2022/06/07 07:34:07;;;;;;;5.07;2.00;;;;;;;16.26;60.13;99608.56;5034378;28;20985;-79
2022/06/07 07:36:32;;;;;;;2.25;1.17;;;;;;;16.34;59.95;99612.53;5021560;28;20068;-86
2022/06/07 07:38:58;;;;;;;4.65;1.27;;;;;;;16.44;59.87;99612.31;5020877;28;20060;-84
2022/06/07 07:41:26;;;;;;;3.78;1.55;;;;;;;16.53;59.23;99615.16;5063628;28;20048;-85
2022/06/07 07:43:54;;;;;;;3.47;1.20;;;;;;;16.53;58.95;99614.34;5047563;28;20388;-85
2022/06/07 07:46:21;;;;;;;3.85;1.20;;;;;;;16.69;58.28;99612.06;5038742;28;20525;-82
2022/06/07 07:48:47;;;;;;;3.90;1.55;;;;;;;16.80;57.89;99616.19;5020911;28;20041;-82
2022/06/07 07:51:18;;;;;;;5.32;1.73;;;;;;;16.85;58.08;99618.03;5021072;28;20037;-86
2022/06/07 07:53:44;;;;;;;5.25;1.65;;;;;;;16.55;57.69;99617.59;5033239;28;20051;-84
2022/06/07 07:56:10;;;;;;;4.05;1.77;;;;;;;16.59;58.00;99615.84;5041190;28;20468;-85
2022/06/07 07:58:35;;;;;;;4.40;1.73;;;;;;;16.61;58.54;99621.03;5042709;28;20044;-89
2022/06/07 08:01:07;;;;;;;2.50;1.20;;;;;;;16.61;57.88;99610.84;5041420;28;20071;-89
2022/06/07 08:03:32;;;;;;;3.30;1.15;;;;;;;16.60;57.79;99622.97;5041569;28;20037;-86
2022/06/07 08:05:58;;;;;;;2.78;1.38;;;;;;;16.65;57.70;99617.38;5039623;28;20479;-87
2022/06/07 08:08:37;;;;;;;5.27;1.93;;;;;;;16.69;57.70;99621.13;5041071;28;20484;-89
2022/06/07 08:11:03;;;;;;;5.75;1.48;;;;;;;16.83;57.53;99623.03;5042151;28;20266;-89
2022/06/07 08:13:29;;;;;;;3.70;1.60;;;;;;;17.09;57.06;99622.41;5038746;28;20048;-87
2022/06/07 08:15:54;;;;;;;3.80;1.38;;;;;;;17.07;56.65;99618.34;5040770;28;20084;-92
2022/06/07 08:18:19;;;;;;;6.40;2.00;;;;;;;17.12;56.84;99624.59;5040690;28;20130;-86
2022/06/07 08:20:46;;;;;;;8.73;2.07;;;;;;;16.92;56.68;99620.34;5019438;28;20056;-88
2022/06/07 08:23:12;;;;;;;4.40;1.33;;;;;;;16.98;56.91;99623.78;5027978;28;20261;-89
2022/06/07 08:25:38;;;;;;;7.40;1.77;;;;;;;17.24;56.71;99621.28;5040864;28;20519;-85
2022/06/07 08:28:05;;;;;;;4.40;1.48;;;;;;;17.20;55.57;99623.03;5041590;28;20025;-84
2022/06/07 08:30:32;;;;;;;6.97;1.23;;;;;;;17.17;55.66;99622.84;5040990;28;20107;-89
2022/06/07 08:32:59;;;;;;;2.90;1.58;;;;;;;17.15;55.83;99612.94;5040927;28;20541;-86
2022/06/07 08:38:09;;;;;;;;;;;;;;;16.91;55.72;99622.28;5041316;28;20048;-85
2022/06/07 08:40:37;;;;;;;5.47;1.40;;;;;;;16.89;55.72;99624.53;5046757;28;19924;-84
2022/06/07 08:43:14;;;;;;;3.08;1.23;;;;;;;16.87;55.68;99624.03;5052926;28;20033;-84
2022/06/07 08:45:42;;;;;;;4.45;1.00;;;;;;;16.99;55.60;99620.72;5040261;28;20029;-82
2022/06/07 08:48:12;;;;;;;4.28;1.33;;;;;;;17.07;54.87;99613.66;5038404;28;20075;-83
2022/06/07 08:50:45;;;;;;;3.58;1.30;;;;;;;16.99;54.69;99614.41;5039555;28;20064;-83
2022/06/07 08:53:30;;;;;;;3.17;1.60;;;;;;;17.12;54.25;99610.81;5038476;28;20047;-82
2022/06/07 08:56:00;;;;;;;4.07;1.60;;;;;;;17.21;54.12;99608.09;5039418;28;20843;-83
2022/06/07 08:58:41;;;;;;;4.07;1.10;;;;;;;17.12;54.18;99608.06;5040233;28;20086;-83
2022/06/07 09:01:23;;;;;;;3.83;1.25;;;;;;;17.23;54.11;99621.56;5034162;28;20048;-84
2022/06/07 09:18:25;;;;;;;4.13;1.05;;;;;;;17.94;54.54;99614.50;6179672;22;2258412;-80
2022/06/07 09:20:53;;;;;;;7.40;1.30;;;;;;;17.90;54.88;99610.75;6274655;22;20019;-78
2022/06/07 09:23:27;;;;;;;4.57;1.85;;;;;;;17.93;55.08;99604.59;6273652;22;20408;-77
2022/06/07 09:25:55;;;;;;;7.88;2.25;;;;;;;17.80;55.36;99609.06;6274488;22;20624;-78
2022/06/07 09:28:26;;;;;;;4.53;1.40;;;;;;;17.88;55.17;99615.75;6268078;22;20463;-79
2022/06/07 09:31:00;;;;;;;3.35;1.33;;;;;;;18.18;54.89;99609.75;6269114;22;20008;-78
2022/06/07 09:33:29;;;;;;;5.35;1.55;;;;;;;18.35;54.69;99600.69;6274488;22;20006;-79
2022/06/07 09:36:07;;;;;;;3.67;1.20;;;;;;;18.38;54.52;99600.06;6272670;22;20007;-77
2022/06/07 09:38:40;;;;;;;5.63;1.67;;;;;;;18.38;54.86;99605.56;6275632;22;20000;-79
2022/06/07 09:41:36;;;;;;;5.82;2.85;;;;;;;18.26;55.09;99592.41;6271299;22;20007;-78
2022/06/07 09:44:15;;;;;;;3.45;1.55;;;;;;;18.37;55.16;99600.34;6275862;22;20436;-79
2022/06/07 09:46:43;;;;;;;4.38;1.48;;;;;;;18.55;54.75;99596.50;6274733;22;20007;-77
2022/06/07 09:49:45;;;;;;;2.28;1.05;;;;;;;18.27;55.02;99594.00;6274060;22;20439;-79
2022/06/07 09:52:11;;;;;;;5.18;2.15;;;;;;;18.47;55.30;99600.03;6241684;23;20012;-79
2022/06/07 09:54:41;;;;;;;3.65;1.55;;;;;;;18.60;54.60;99600.22;6264862;22;20014;-79
2022/06/07 09:57:18;;;;;;;4.20;1.60;;;;;;;18.60;54.77;99600.22;6275313;22;20110;-78
2022/06/07 10:00:01;;;;;;;4.88;1.75;;;;;;;18.70;54.92;99593.56;6275147;22;20010;-79
2022/06/07 10:02:45;;;;;;;4.05;1.45;;;;;;;18.88;54.14;99592.44;6271530;22;20134;-78
2022/06/07 10:05:31;;;;;;;5.53;1.58;;;;;;;19.04;53.68;99582.88;6274923;22;20003;-79
2022/06/07 10:08:21;;;;;;;5.30;1.15;;;;;;;19.00;53.83;99586.25;6272248;22;20008;-80
2022/06/07 10:11:04;;;;;;;4.25;1.50;;;;;;;19.24;54.21;99589.69;6273644;22;20065;-79
2022/06/07 10:13:48;;;;;;;5.22;1.15;;;;;;;19.39;53.54;99602.16;6275248;22;20011;-80
2022/06/07 10:16:13;;;;;;;;;;;;;;;19.33;54.07;99587.72;6272932;22;20008;-78
2022/06/07 10:18:51;;;;;;;2.50;1.23;;;;;;;19.08;54.21;99594.88;6270181;22;19938;-79
2022/06/07 10:21:42;;;;;;;4.85;1.77;;;;;;;18.93;54.88;99585.94;6267633;22;20019;-80
2022/06/07 10:24:34;;;;;;;9.27;2.10;;;;;;;19.28;54.38;99578.78;6266212;22;20071;-79
2022/06/07 10:27:13;;;;;;;8.48;1.45;;;;;;;19.53;54.60;99573.50;6267196;22;20424;-78
2022/06/07 10:29:49;;;;;;;3.22;2.10;;;;;;;19.93;53.27;99567.63;6266987;22;20011;-79
2022/06/07 10:32:28;;;;;;;4.95;2.08;;;;;;;19.76;53.31;99565.78;6266700;22;20108;-79
2022/06/07 10:35:04;;;;;;;9.05;2.25;;;;;;;19.65;53.75;99559.78;6267510;22;20432;-79
2022/06/07 10:37:49;;;;;;;2.92;1.10;;;;;;;19.72;53.94;99562.06;6261089;22;20248;-79
2022/06/07 10:40:38;;;;;;;5.28;2.28;;;;;;;19.67;54.17;99562.25;6261941;22;20003;-79
2022/06/07 10:43:16;;;;;;;7.97;2.20;;;;;;;19.54;54.49;99559.38;6262418;22;20190;-80
2022/06/07 10:45:44;;;;;;;6.72;1.30;;;;;;;19.43;54.67;99556.13;6259805;22;20856;-79
2022/06/07 10:48:33;;;;;;;4.25;2.03;;;;;;;19.11;54.55;99553.59;6262513;22;20011;-78
2022/06/07 10:54:27;;;;;;;4.47;1.90;;;;;;;19.58;53.85;99559.50;6260220;22;20018;-79
2022/06/07 10:57:00;;;;;;;5.05;1.35;;;;;;;19.43;54.34;99553.38;6261800;22;20008;-79
2022/06/07 10:59:28;;;;;;;4.90;1.35;;;;;;;19.43;54.19;99550.59;6259933;22;20498;-80
2022/06/07 11:02:00;;;;;;;3.58;1.88;;;;;;;19.55;54.01;99557.38;6262016;22;20011;-78
2022/06/07 11:10:28;;;;;;;;;;;;;;;19.58;54.26;99542.91;6262641;22;20018;-80
2022/06/07 11:12:59;;;;;;;5.03;1.48;;;;;;;19.66;54.20;99541.25;6261001;22;19918;-80
2022/06/07 11:15:31;;;;;;;5.53;1.80;;;;;;;19.57;54.52;99544.03;6260886;22;20419;-79
2022/06/07 11:18:07;;;;;;;5.50;1.67;;;;;;;19.80;53.81;99549.31;6261768;22;20034;-79
2022/06/07 11:20:36;;;;;;;2.80;1.40;;;;;;;19.70;54.05;99548.56;6259975;22;20527;-78
2022/06/07 11:23:11;;;;;;;5.15;1.42;;;;;;;19.57;54.70;99552.34;6262438;22;20027;-79
2022/06/07 11:25:41;;;;;;;3.75;1.67;;;;;;;19.52;55.14;99549.78;6259446;22;20021;-80
2022/06/07 11:28:25;;;;;;;3.08;1.85;;;;;;;19.30;55.29;99544.13;6261320;22;20057;-79
2022/06/07 11:30:54;;;;;;;6.28;1.65;;;;;;;19.48;54.81;99542.16;6261653;22;20057;-79
2022/06/07 11:33:38;;;;;;;4.00;1.40;;;;;;;19.80;54.20;99541.84;6259828;22;20012;-78
2022/06/07 11:36:25;;;;;;;3.72;1.35;;;;;;;19.70;54.85;99540.28;6262038;22;20012;-79
2022/06/07 11:39:18;;;;;;;3.92;1.15;;;;;;;19.57;55.00;99535.75;6260395;22;20489;-80
2022/06/07 11:41:48;;;;;;;6.63;2.00;;;;;;;19.60;55.02;99530.41;6259737;22;20011;-80
2022/06/07 11:44:16;;;;;;;2.97;1.27;;;;;;;19.73;54.59;99529.69;6261921;22;20018;-79
2022/06/07 11:47:07;;;;;;;3.50;1.50;;;;;;;20.37;53.82;99533.38;6259283;22;20014;-78
2022/06/07 11:53:00;;;;;;;2.83;1.38;;;;;;;20.54;53.17;99531.63;6255423;22;20772;-80
2022/06/07 11:55:38;;;;;;;2.50;1.17;;;;;;;20.40;52.61;99529.94;6258780;22;20012;-79
2022/06/07 11:58:07;;;;;;;3.03;1.08;;;;;;;20.33;51.93;99526.91;6261399;22;20460;-78
2022/06/07 12:00:34;;;;;;;2.50;1.25;;;;;;;20.39;52.52;99531.09;6259615;22;20442;-80
2022/06/07 12:03:03;;;;;;;3.50;1.25;;;;;;;20.37;52.33;99538.09;6257692;22;20082;-79
2022/06/07 12:05:46;;;;;;;4.78;1.80;;;;;;;20.23;52.61;99532.84;6260710;22;20424;-79
2022/06/07 12:08:52;;;;;;;6.43;1.40;;;;;;;20.44;51.72;99532.84;6232362;22;20549;-78
2022/06/07 12:11:28;;;;;;;3.65;1.50;;;;;;;20.52;51.86;99534.72;6261032;22;20027;-79
2022/06/07 12:14:00;;;;;;;5.88;1.42;;;;;;;20.51;52.07;99532.28;6260555;22;20030;-79
2022/06/07 12:16:32;;;;;;;3.17;1.30;;;;;;;20.15;52.26;99526.22;6257558;22;20058;-78
2022/06/07 12:19:00;;;;;;;4.47;1.67;;;;;;;20.08;52.50;99529.50;6259486;22;20008;-78
2022/06/07 12:21:27;;;;;;;3.95;1.05;;;;;;;19.83;53.28;99521.81;6259164;22;20035;-79
2022/06/07 12:24:23;;;;;;;6.45;1.25;;;;;;;19.77;54.70;99527.88;6260972;22;20115;-78
2022/06/07 12:26:50;;;;;;;12.65;2.08;;;;;;;20.03;54.26;99524.16;6246421;22;20038;-80
2022/06/07 12:29:28;;;;;;;3.45;1.40;;;;;;;20.08;54.38;99532.28;6260367;22;19999;-80
2022/06/07 12:32:00;;;;;;;2.17;1.30;;;;;;;20.11;54.25;99525.25;6261532;22;20011;-80